TimeCDT,TemperatureF,Dew PointF,Humidity,Sea Level PressureIn,VisibilityMPH,Wind Direction,Wind SpeedMPH,Gust SpeedMPH,PrecipitationIn,Events,Conditions,WindDirDegrees,DateUTC
12:53 AM,46.9,30.9,54,30.19,10.0,NW,11.5,-,N/A,,Clear,310,2013-11-02 05:53:00
1:53 AM,46.9,30.0,52,30.18,10.0,NNW,11.5,-,N/A,,Clear,330,2013-11-02 06:53:00
2:53 AM,46.0,30.0,54,30.19,10.0,NW,10.4,-,N/A,,Clear,310,2013-11-02 07:53:00
3:53 AM,42.1,30.0,62,30.22,9.0,NW,6.9,-,N/A,,Clear,310,2013-11-02 08:53:00
4:53 AM,41.0,30.0,65,30.24,10.0,NW,8.1,-,N/A,,Clear,310,2013-11-02 09:53:00
5:53 AM,43.0,28.9,58,30.26,10.0,NW,10.4,-,N/A,,Clear,320,2013-11-02 10:53:00
6:53 AM,42.1,28.9,60,30.28,10.0,NW,10.4,-,N/A,,Clear,310,2013-11-02 11:53:00
7:53 AM,39.9,28.9,65,30.31,10.0,NW,9.2,-,N/A,,Clear,320,2013-11-02 12:53:00
8:53 AM,44.1,28.9,55,30.33,10.0,NNW,8.1,-,N/A,,Clear,330,2013-11-02 13:53:00
9:53 AM,48.9,28.9,46,30.36,10.0,NW,5.8,-,N/A,,Clear,320,2013-11-02 14:53:00
10:53 AM,55.0,30.0,38,30.34,10.0,North,9.2,-,N/A,,Clear,360,2013-11-02 15:53:00
11:53 AM,57.9,26.1,30,30.35,10.0,North,6.9,-,N/A,,Clear,10,2013-11-02 16:53:00
12:53 PM,59.0,25.0,27,30.33,10.0,Calm,Calm,-,N/A,,Clear,0,2013-11-02 17:53:00
1:53 PM,61.0,25.0,25,30.29,10.0,NE,3.5,-,N/A,,Clear,40,2013-11-02 18:53:00
2:53 PM,61.0,27.0,27,30.25,10.0,Calm,Calm,-,N/A,,Clear,0,2013-11-02 19:53:00
3:53 PM,62.1,26.1,25,30.24,10.0,Calm,Calm,-,N/A,,Clear,0,2013-11-02 20:53:00
4:53 PM,62.1,26.1,25,30.22,10.0,Calm,Calm,-,N/A,,Clear,0,2013-11-02 21:53:00
5:53 PM,61.0,28.9,30,30.20,10.0,South,8.1,-,N/A,,Clear,170,2013-11-02 22:53:00
6:53 PM,55.0,32.0,42,30.20,10.0,SSE,8.1,-,N/A,,Clear,150,2013-11-02 23:53:00
7:53 PM,53.1,33.1,47,30.20,10.0,SE,9.2,-,N/A,,Clear,140,2013-11-03 00:53:00
8:53 PM,52.0,32.0,47,30.19,10.0,SSE,10.4,-,N/A,,Clear,150,2013-11-03 01:53:00
9:53 PM,50.0,32.0,50,30.17,10.0,SSE,9.2,-,N/A,,Clear,150,2013-11-03 02:53:00
10:53 PM,48.9,32.0,52,30.17,10.0,SSE,12.7,-,N/A,,Clear,160,2013-11-03 03:53:00
11:53 PM,46.9,33.1,59,30.15,10.0,SSE,12.7,-,N/A,,Clear,150,2013-11-03 04:53:00